Cedar City, Utah Weather observations

Data are for observation ending at time listed.
 Day   Time    Ave.   Ave.  Ave.  Vector   Max.   Stn.    Total    Solar   Ave.  
  of    of     Air    Rel.  Wind   Wind    Wind   Baro.  Precip.   Rad.    Soil  
Year   Day     Temp.  Hum.  Speed  Dir.    Gust   Pres.                    Temp. 
2016   (MST)    F      %     mph   deg.    mph     mb.     in.     W/m2     F   
------------------------------------------------------------------------------
 238   13:00   69.3    35    6.0    12     11.9   825.5    0.00      83    70.9
 238   13:10   68.5    37    5.7    25     12.7   825.5    0.00      58    70.9
 238   13:20   66.3    46    4.0   351     10.3   825.6    0.00      71    71.0
 238   13:30   65.4    49    4.3    14     13.4   825.2    0.01     110    71.0
 238   13:40   65.5    53    1.9   152      4.9   824.9    0.00     181    71.1
 238   13:50   67.0    52    0.9   164      3.7   824.6    0.00     418    71.1
 238   14:00   68.7    46    1.6     7      3.7   824.5    0.00     187    71.1
 238   14:10   68.2    46    2.7   331      5.3   824.4    0.00     178    71.0
 238   14:20   68.5    45    2.8   258      4.7   824.4    0.00     217    71.0
 238   14:30   69.0    39    2.7   302      5.4   824.4    0.00     146    71.0
 238   14:40   69.5    39    2.3   310      4.8   824.5    0.00     163    71.0
 238   14:50   69.6    36    2.6   296      6.1   824.8    0.00      53    71.0
 238   15:00   69.3    37    2.0   226      4.7   825.3    0.00      28    71.0
 238   15:10   68.6    41    3.2   119     12.2   825.4    0.00      56    71.0
 238   15:20   66.3    49    6.4    78     11.0   824.6    0.00     215    70.9
 238   15:30   67.3    45    5.9    75     10.6   824.4    0.00     395    70.9
 238   15:40   66.7    46    5.3   119      9.5   824.5    0.00     349    70.9
 238   15:50   67.2    46    3.4    59      7.9   824.6    0.00     199    70.9
 238   16:00   67.2    41    3.9   360      9.3   824.9    0.00     146    70.8
 238   16:10   66.9    40    5.1   353     12.9   825.0    0.00     113    70.8
 238   16:20   65.3    45    4.0     9     13.2   824.8    0.00     158    70.8
 238   16:30   65.4    43    4.4     6     15.4   824.8    0.00     154    70.8
 238   16:40   67.7    38    6.0    35     14.8   824.3    0.00     461    70.8
 238   16:50   68.5    38    5.9    95     14.8   824.2    0.00     256    70.7
 238   17:00   68.2    38    4.4   106      9.1   824.3    0.00     168    70.7
 238   17:10   68.8    38    3.6    93     11.0   824.2    0.00     184    70.7
 238   17:20   69.1    36    7.3    85     15.4   823.8    0.00     192    70.6
 238   17:30   69.1    35    7.6    88     13.9   823.6    0.00     151    70.6
 238   17:40   68.8    34    7.9    98     14.2   823.6    0.00      98    70.6
 238   17:50   69.0    33    4.3    90     11.9   823.6    0.00      63    70.6
 238   18:00   69.4    33    1.5   249      5.0   824.0    0.00      39    70.6
 238   18:10   68.7    36    4.2   265      8.7   824.5    0.00      22    70.6
 238   18:20   66.8    40    5.2   314     13.4   825.2    0.00      14    70.6
 238   18:30   65.3    43    3.6   352     11.7   825.4    0.00      11    70.6
 238   18:40   65.1    42    3.1    51      7.5   825.7    0.00       4    70.6
 238   18:50   65.4    42    2.7    98      5.7   826.0    0.00       0    70.5
 238   19:00   65.4    42    3.5    67      6.7   826.1    0.00       0    70.5
 238   19:10   64.8    47    6.1    65     14.2   826.0    0.00       0    70.5
 238   19:20   64.1    47    9.0    85     15.7   824.6    0.00       1    70.4
 238   19:30   63.6    46   10.8   102     22.2   824.1    0.00       0    70.5
 238   19:40   62.5    50    8.6    92     19.2   824.2    0.00       0    70.4
 238   19:50   62.7    49    9.2    84     17.2   824.1    0.00       0    70.4
 238   20:00   63.0    47    8.5    90     17.4   824.2    0.00       0    70.4
 238   20:10   63.1    46    7.8    97     16.7   824.4    0.00       0    70.4
 238   20:20   63.0    46    7.3    85     12.1   824.5    0.00       0    70.3
 238   20:30   63.0    45    6.8    80     10.2   824.5    0.00       0    70.2
 238   20:40   63.2    45    4.6   103     11.6   824.8    0.00       0    70.2
 238   20:50   60.9    58    4.8   224     14.2   825.7    0.09       0    70.1
 238   21:00   56.1    75    3.6   111      6.9   825.3    0.00       0    70.0
 238   21:10   58.2    67    6.6   103     13.3   824.8    0.00       0    69.9
 238   21:20   58.4    65    7.1    90     15.1   825.1    0.00       0    69.9
 238   21:30   59.1    62    5.6    86      8.6   825.3    0.00       0    69.8
 238   21:40   60.8    55    6.2    96     11.4   825.3    0.00       0    69.8
 238   21:50   61.6    51    8.1    89     15.9   825.4    0.00       0    69.7
 238   22:00   61.2    54    8.9    83     14.5   825.1    0.00       0    69.6
 238   22:10   61.3    52   10.1    90     16.7   824.6    0.00       0    69.5
 238   22:20   62.7    46    8.5    92     16.6   824.3    0.00       0    69.5
 238   22:30   63.8    42    9.0    99     20.8   824.2    0.00       0    69.4
 238   22:40   64.5    40    7.7    95     15.4   824.2    0.00       0    69.3
 238   22:50   65.0    38    5.1   135     15.5   824.4    0.00       0    69.2
 238   23:00   64.0    41    2.1   290      5.7   824.7    0.00       0    69.1
 238   23:10   63.8    43    1.8   319      4.4   825.1    0.00       0    69.0
 238   23:20   62.5    47    2.5     2      8.4   825.4    0.00       0    68.9
 238   23:30   62.4    48    0.9   258      2.4   825.5    0.00       0    68.8
 238   23:40   61.8    49    0.6   359      2.5   825.6    0.00       0    68.8
 238   23:50   61.1    53    2.1   122      3.1   825.6    0.00       0    68.7
 239    0:00   60.8    52    5.3    81     12.9   825.4    0.00       0    68.6
 239    0:10   60.5    52    2.9    97      5.8   825.3    0.00       0    68.6
 239    0:20   60.5    52    1.9   118      7.6   825.3    0.00       0    68.5
 239    0:30   60.5    51    3.1   138      7.8   825.0    0.00       0    68.5
 239    0:40   61.0    50    4.0   147     10.7   824.9    0.00       0    68.4
 239    0:50   59.1    57    1.4   172      2.9   825.0    0.00       0    68.4
 239    1:00   58.1    59    1.4   199      4.1   825.0    0.00       0    68.3
 239    1:10   57.3    62    1.5   172      2.5   824.9    0.00       0    68.2
 239    1:20   57.0    62    3.0   103      4.0   824.8    0.00       0    68.2
 239    1:30   57.6    60    1.8   118      3.0   824.7    0.00       0    68.1
 239    1:40   56.5    64    1.0   203      3.1   824.6    0.00       0    68.1
 239    1:50   55.6    66    0.5   297      1.2   824.7    0.00       0    68.0
 239    2:00   55.8    64    1.0    39      3.2   824.9    0.00       0    68.0
 239    2:10   55.6    67    1.0   192      3.4   824.9    0.00       0    67.9
 239    2:20   56.0    64    2.2    94      3.8   824.9    0.00       0    67.9
 239    2:30   56.2    66    1.2   234      2.7   824.8    0.00       0    67.9
 239    2:40   55.0    68    1.3   165      3.4   824.7    0.00       0    67.8
 239    2:50   54.9    69    1.3   196      3.6   824.6    0.00       0    67.7
 239    3:00   53.8    72    2.2   214      3.4   824.6    0.00       0    67.7
 239    3:10   53.9    70    1.3   173      2.6   824.7    0.00       0    67.7
 239    3:20   54.8    66    2.1    90      3.9   824.9    0.00       0    67.6
 239    3:30   55.3    64    1.5   128      2.9   824.8    0.00       0    67.6
 239    3:40   54.6    69    0.3   168      1.7   824.7    0.00       0    67.5
 239    3:50   53.6    71    0.6   190      2.0   824.6    0.00       0    67.4
 239    4:00   53.3    72    1.3   187      3.0   824.6    0.00       0    67.2
 239    4:10   52.9    72    0.8   186      2.6   824.5    0.00       0    67.1
 239    4:20   53.1    70    1.9   208      3.1   824.6    0.00       0    67.1
 239    4:30   52.9    70    0.3   191      1.7   824.7    0.00       0    67.0
 239    4:40   52.7    70    1.0   122      2.2   824.6    0.00       0    67.0
 239    4:50   52.9    71    0.1   161      1.1   824.6    0.00       0    67.0
 239    5:00   52.9    70    0.7   122      3.1   824.5    0.00       0    66.9
 239    5:10   52.5    72    1.4   208      2.3   824.5    0.00       0    66.8
 239    5:20   52.3    72    1.4   177      3.4   824.5    0.00       0    66.8
 239    5:30   52.8    70    1.1   153      2.9   824.6    0.00       0    66.7
 239    5:40   52.2    72    0.5   213      2.3   824.6    0.00       0    66.7
 239    5:50   51.9    73    0.1   131      1.3   824.7    0.00       0    66.6
 239    6:00   52.2    72    0.5   120      1.6   824.8    0.00       0    66.5
 239    6:10   52.8    70    1.1   217      4.7   824.8    0.00       6    66.5
 239    6:20   53.0    69    1.3   220      3.2   824.9    0.00       9    66.4
 239    6:30   53.4    69    0.5   196      2.7   824.9    0.00      14    66.4
 239    6:40   54.4    67    1.1   157      2.9   824.9    0.00      23    66.3
 239    6:50   54.9    67    0.5   208      2.4   825.0    0.00      94    66.2
 239    7:00   57.5    61    1.5   201      3.1   825.1    0.00     125    66.2
 239    7:10   59.6    58    0.2   175      1.2   825.2    0.00     155    66.2
 239    7:20   62.4    53    0.1    76      0.7   825.3    0.00     189    66.2
 239    7:30   64.1    50    0.3   263      1.3   825.3    0.00     222    66.1
 239    7:40   64.2    48    1.4   314      3.1   825.4    0.00     253    66.1
 239    7:50   64.1    47    2.1   300      3.1   825.5    0.00     286    66.1
 239    8:00   65.2    46    1.8   306      3.3   825.5    0.00     310    66.0
 239    8:10   66.3    44    2.0   273      4.7   825.5    0.00     344    66.1
 239    8:20   67.0    43    2.5   269      4.4   825.6    0.00     386    66.1
 239    8:30   67.8    40    2.0   255      4.5   825.6    0.00     424    66.0
 239    8:40   70.6    37    1.0   216      4.0   825.5    0.00     443    66.0
 239    8:50   68.8    40    2.8   277      5.1   825.5    0.00     481    66.0
 239    9:00   70.4    38    1.6   189      3.4   825.5    0.00     527    66.0
 239    9:10   71.0    38    1.3   338      3.4   825.6    0.00     556    66.0
 239    9:20   72.0    37    0.6    51      2.8   825.7    0.00     577    66.0
 239    9:30   72.7    38    2.1   165      5.2   825.7    0.00     598    66.0
 239    9:40   72.4    40    3.3   211     10.6   825.7    0.00     610    66.0
 239    9:50   72.7    39    4.8   217     11.7   825.6    0.00     544    66.0
 239   10:00   73.1    38    5.2   228     13.7   825.5    0.00     675    66.1
 239   10:10   72.7    38    6.0   231     12.3   825.4    0.00     700    66.1
 239   10:20   72.6    40    5.0   248     11.1   825.5    0.00     722    66.1
 239   10:30   73.7    37    5.0   237     10.7   825.5    0.00     745    66.1
 239   10:40   73.7    38    5.5   249     12.6   825.5    0.00     766    66.1
 239   10:50   74.0    36    5.6   254     14.0   825.4    0.00     787    66.1
 239   11:00   75.5    34    4.8   230     10.3   825.4    0.00     808    66.1
 239   11:10   76.1    32    5.8   225     12.0   825.3    0.00     825    66.1
 239   11:20   75.7    30    6.7   228     14.9   825.3    0.00     838    66.2
 239   11:30   75.8    30    7.5   226     14.7   825.2    0.00     850    66.2
 239   11:40   75.7    29    6.6   226     12.8   825.2    0.00     859    66.2
 239   11:50   76.7    28    5.6   226     13.5   825.1    0.00     868    66.3
 239   12:00   77.4    28    5.5   220     13.1   825.0    0.00     875    66.3
 239   12:10   77.1    28    5.6   227     11.9   824.9    0.00     885    66.3
 239   12:20   77.5    27    5.3   208     12.9   824.8    0.00     891    66.4
 239   12:30   77.6    28    5.7   216     13.6   824.8    0.00     894    66.5
 239   12:40   77.6    27    5.8   218     14.8   824.7    0.00     896    66.5
 239   12:50   77.7    28    6.3   221     12.5   824.6    0.00     899    66.5

Return to Cedar City, Utah graphs page.


Western Regional Climate Center,wrcc@dri.edu